createdAt,value
2019-03-13T00:01:23.744Z,51.03
2019-03-13T00:03:54.377Z,51.06
2019-03-13T00:06:25.177Z,51.10
2019-03-13T00:08:56.014Z,51.13
2019-03-13T00:11:26.515Z,51.19
2019-03-13T00:13:57.140Z,51.26
2019-03-13T00:16:27.815Z,51.28
2019-03-13T00:18:58.311Z,51.33
2019-03-13T00:21:28.583Z,51.35
2019-03-13T00:23:58.842Z,51.39
2019-03-13T00:26:29.111Z,51.41
2019-03-13T00:28:59.491Z,51.50
2019-03-13T00:31:30.425Z,51.53
2019-03-13T00:34:01.047Z,51.54
2019-03-13T00:36:32.330Z,51.60
2019-03-13T00:39:04.236Z,51.65
2019-03-13T00:41:35.526Z,51.68
2019-03-13T00:44:05.807Z,51.70
2019-03-13T00:46:36.409Z,51.72
2019-03-13T00:49:06.745Z,51.80
2019-03-13T00:51:37.263Z,51.82
2019-03-13T00:54:08.791Z,51.84
2019-03-13T00:56:39.478Z,51.87
2019-03-13T00:59:10.294Z,51.93
2019-03-13T01:01:54.457Z,51.98
2019-03-13T01:04:26.341Z,51.98
2019-03-13T01:06:58.683Z,52.02
2019-03-13T01:09:29.541Z,52.06
2019-03-13T01:12:00.447Z,52.07
2019-03-13T01:14:32.076Z,52.14
2019-03-13T01:17:04.643Z,52.15
2019-03-13T01:19:34.985Z,52.22
2019-03-13T01:22:06.115Z,52.24
2019-03-13T01:24:36.411Z,52.31
2019-03-13T01:27:06.665Z,52.33
2019-03-13T01:29:36.968Z,52.37
2019-03-13T01:32:15.134Z,52.42
2019-03-13T01:34:50.147Z,52.44
2019-03-13T01:37:20.457Z,52.48
2019-03-13T01:39:50.789Z,52.52
2019-03-13T01:42:21.384Z,52.53
2019-03-13T01:44:52.484Z,52.56
2019-03-13T01:47:23.169Z,52.60
2019-03-13T01:49:53.819Z,52.65
2019-03-13T01:52:24.518Z,52.65
2019-03-13T01:54:55.185Z,52.71
2019-03-13T01:57:25.863Z,52.74
2019-03-13T01:59:56.164Z,52.76
2019-03-13T02:02:26.791Z,52.79
2019-03-13T02:04:58.264Z,52.83
2019-03-13T02:07:28.865Z,52.86
2019-03-13T02:09:59.522Z,52.89
2019-03-13T02:12:30.019Z,52.94
2019-03-13T02:15:00.498Z,52.99
2019-03-13T02:17:31.385Z,53.01
2019-03-13T02:20:01.684Z,53.05
2019-03-13T02:22:32.320Z,53.08
2019-03-13T02:25:02.570Z,53.11
2019-03-13T02:27:33.188Z,53.13
2019-03-13T02:30:05.745Z,53.21
2019-03-13T02:32:36.926Z,53.23
2019-03-13T02:35:08.100Z,53.26
2019-03-13T02:37:38.761Z,53.27
2019-03-13T02:40:14.728Z,53.33
2019-03-13T02:42:45.630Z,53.37
2019-03-13T02:45:16.344Z,53.36
2019-03-13T02:47:46.946Z,53.37
2019-03-13T02:50:19.232Z,53.38
2019-03-13T02:52:49.974Z,53.40
2019-03-13T02:55:20.541Z,53.44
2019-03-13T02:57:51.005Z,53.48
2019-03-13T03:00:26.305Z,53.52
2019-03-13T03:03:16.256Z,53.55
2019-03-13T03:05:46.880Z,53.56
2019-03-13T03:08:17.180Z,53.60
2019-03-13T03:10:47.868Z,53.63
2019-03-13T03:13:18.596Z,53.67
2019-03-13T03:15:49.958Z,53.67
2019-03-13T03:18:20.263Z,53.72
2019-03-13T03:20:50.880Z,53.71
2019-03-13T03:23:21.209Z,53.74
2019-03-13T03:25:51.799Z,53.78
2019-03-13T03:28:22.876Z,53.82
2019-03-13T03:30:53.506Z,53.84
2019-03-13T03:33:24.180Z,53.87
2019-03-13T03:35:54.480Z,53.90
2019-03-13T03:38:24.691Z,53.94
2019-03-13T03:40:56.251Z,53.95
2019-03-13T03:43:39.426Z,54.02
2019-03-13T03:45:59.248Z,54.08
2019-03-13T03:48:29.927Z,54.10
2019-03-13T03:51:00.749Z,54.13
2019-03-13T03:53:31.404Z,54.15
2019-03-13T03:56:02.217Z,54.17
2019-03-13T03:58:32.518Z,54.20
2019-03-13T04:01:02.760Z,54.23
2019-03-13T04:03:33.666Z,54.26
2019-03-13T04:06:04.598Z,54.28
2019-03-13T04:08:37.674Z,54.27
2019-03-13T04:11:06.890Z,54.27
2019-03-13T04:13:37.454Z,54.30
2019-03-13T04:16:08.314Z,54.29
2019-03-13T04:18:38.601Z,54.32
2019-03-13T04:21:09.333Z,54.34
2019-03-13T04:23:39.992Z,54.34
2019-03-13T04:26:12.742Z,54.37
2019-03-13T04:28:42.373Z,54.40
2019-03-13T04:31:13.010Z,54.40
2019-03-13T04:33:45.593Z,54.44
2019-03-13T04:36:16.285Z,54.44
2019-03-13T04:38:46.913Z,54.47
2019-03-13T04:41:17.198Z,54.48
2019-03-13T04:43:47.443Z,54.51
2019-03-13T04:46:17.706Z,54.52
2019-03-13T04:48:47.952Z,54.48
2019-03-13T04:51:18.166Z,54.51
2019-03-13T04:53:48.374Z,54.52
2019-03-13T04:56:18.591Z,54.50
2019-03-13T04:58:48.801Z,54.50
2019-03-13T05:01:19.393Z,54.50
2019-03-13T05:03:49.672Z,54.49
2019-03-13T05:06:22.156Z,54.47
2019-03-13T05:08:55.098Z,54.47
2019-03-13T05:11:25.574Z,54.49
2019-03-13T05:13:56.172Z,54.45
2019-03-13T05:16:26.823Z,54.46
2019-03-13T05:18:57.641Z,54.44
2019-03-13T05:21:27.988Z,54.43
2019-03-13T05:23:58.327Z,54.42
2019-03-13T05:26:28.533Z,54.42
2019-03-13T05:28:58.764Z,54.41
2019-03-13T05:31:29.561Z,54.40
2019-03-13T05:33:59.775Z,54.40
2019-03-13T05:36:30.006Z,54.41
2019-03-13T05:39:00.652Z,54.41
2019-03-13T05:41:33.024Z,54.37
2019-03-13T05:44:03.658Z,54.37
2019-03-13T05:46:33.988Z,54.36
2019-03-13T05:49:04.600Z,54.33
2019-03-13T05:51:35.243Z,54.30
2019-03-13T05:54:05.563Z,54.28
2019-03-13T05:56:36.942Z,54.26
2019-03-13T05:59:07.213Z,54.26
2019-03-13T06:01:37.763Z,54.25
2019-03-13T06:04:08.057Z,54.21
2019-03-13T06:06:38.287Z,54.23
2019-03-13T06:09:08.501Z,54.22
2019-03-13T06:11:38.711Z,54.25
2019-03-13T06:14:08.943Z,54.24
2019-03-13T06:16:39.155Z,54.22
2019-03-13T06:19:09.386Z,54.18
2019-03-13T06:21:40.718Z,54.15
2019-03-13T06:24:11.294Z,54.09
2019-03-13T06:26:41.748Z,54.03
2019-03-13T06:29:12.313Z,53.98
2019-03-13T06:31:48.849Z,53.93
2019-03-13T06:34:19.149Z,53.87
2019-03-13T06:36:49.387Z,53.82
2019-03-13T06:39:20.141Z,53.82
2019-03-13T06:41:50.842Z,53.77
2019-03-13T06:44:21.472Z,53.74
2019-03-13T06:46:52.134Z,53.70
2019-03-13T06:49:22.759Z,53.66
2019-03-13T06:51:53.069Z,53.62
2019-03-13T06:54:23.287Z,53.58
2019-03-13T06:56:53.530Z,53.56
2019-03-13T06:59:25.381Z,53.56
2019-03-13T07:01:57.254Z,53.57
2019-03-13T07:04:32.161Z,53.56
2019-03-13T07:07:13.555Z,53.57
2019-03-13T07:09:48.483Z,53.58
2019-03-13T07:12:23.506Z,53.59
2019-03-13T07:15:13.767Z,53.61
2019-03-13T07:17:52.045Z,53.68
2019-03-13T07:20:32.694Z,53.70
2019-03-13T07:23:21.201Z,53.65
2019-03-13T07:25:56.316Z,53.57
2019-03-13T07:28:34.074Z,53.45
2019-03-13T07:31:11.943Z,53.32
2019-03-13T07:33:44.086Z,53.24
2019-03-13T07:36:19.060Z,53.12
2019-03-13T07:38:57.070Z,53.02
2019-03-13T07:41:29.299Z,52.95
2019-03-13T07:44:17.373Z,52.89
2019-03-13T07:46:55.598Z,52.81
2019-03-13T07:49:39.302Z,52.74
2019-03-13T07:52:17.133Z,52.69
2019-03-13T07:54:57.910Z,52.61
2019-03-13T07:57:32.509Z,52.56
2019-03-13T08:00:23.459Z,52.49
2019-03-13T08:02:56.087Z,52.48
2019-03-13T08:05:28.046Z,52.47
2019-03-13T08:08:00.326Z,52.45
2019-03-13T08:10:48.377Z,52.45
2019-03-13T08:13:32.384Z,52.47
2019-03-13T08:16:04.397Z,52.43
2019-03-13T08:18:39.531Z,52.39
2019-03-13T08:21:28.262Z,52.33
2019-03-13T08:24:16.379Z,52.27
2019-03-13T08:27:04.089Z,52.21
2019-03-13T08:29:40.184Z,52.15
2019-03-13T08:32:12.129Z,52.10
2019-03-13T08:34:47.282Z,52.03
2019-03-13T08:37:37.524Z,51.97
2019-03-13T08:40:26.560Z,51.92
2019-03-13T08:42:56.916Z,51.88
2019-03-13T08:45:35.571Z,51.83
2019-03-13T08:48:08.296Z,51.77
2019-03-13T08:50:40.887Z,51.73
2019-03-13T08:53:17.445Z,51.70
2019-03-13T08:56:04.060Z,51.64
2019-03-13T08:58:48.014Z,51.58
2019-03-13T09:01:20.328Z,51.52
2019-03-13T09:03:55.467Z,51.49
2019-03-13T09:06:33.231Z,51.47
2019-03-13T09:09:09.016Z,51.44
2019-03-13T09:11:41.488Z,51.38
2019-03-13T09:14:30.158Z,51.33
2019-03-13T09:17:20.473Z,51.26
2019-03-13T09:19:50.795Z,51.22
2019-03-13T09:22:39.118Z,51.21
2019-03-13T09:25:29.079Z,51.18
2019-03-13T09:28:17.690Z,51.13
2019-03-13T09:30:49.919Z,51.01
2019-03-13T09:33:27.510Z,50.95
2019-03-13T09:36:05.412Z,50.89
2019-03-13T09:38:43.233Z,50.81
2019-03-13T09:41:17.765Z,50.74
2019-03-13T09:44:05.754Z,50.70
2019-03-13T09:46:40.034Z,50.61
2019-03-13T09:49:24.359Z,50.47
2019-03-13T09:52:15.682Z,50.39
2019-03-13T09:54:47.652Z,50.32
2019-03-13T09:57:19.505Z,50.28
2019-03-13T09:59:51.428Z,50.27
2019-03-13T10:02:27.167Z,50.26
2019-03-13T10:05:08.241Z,50.24
2019-03-13T10:07:43.046Z,50.23
2019-03-13T10:10:25.742Z,50.22
2019-03-13T10:13:14.304Z,50.24
2019-03-13T10:15:57.893Z,50.23
2019-03-13T10:18:34.275Z,50.23
2019-03-13T10:21:12.599Z,50.18
2019-03-13T10:23:47.455Z,50.16
2019-03-13T10:26:19.322Z,50.09
2019-03-13T10:28:58.809Z,50.00
2019-03-13T10:31:31.067Z,49.95
2019-03-13T10:34:19.248Z,49.85
2019-03-13T10:37:06.995Z,49.78
2019-03-13T10:39:43.419Z,49.70
2019-03-13T10:42:15.373Z,49.64
2019-03-13T10:44:47.224Z,49.59
2019-03-13T10:47:43.475Z,49.54
2019-03-13T10:50:18.957Z,49.50
2019-03-13T10:52:58.339Z,49.48
2019-03-13T10:55:39.455Z,49.48
2019-03-13T10:58:14.362Z,49.48
2019-03-13T11:00:52.063Z,49.46
2019-03-13T11:03:22.416Z,49.46
2019-03-13T11:06:03.906Z,49.46
2019-03-13T11:08:37.701Z,49.46
2019-03-13T11:11:19.087Z,49.46
2019-03-13T11:13:55.627Z,49.46
2019-03-13T11:16:47.348Z,49.49
2019-03-13T11:19:22.142Z,49.51
2019-03-13T11:21:59.486Z,49.54
2019-03-13T11:24:33.983Z,49.59
2019-03-13T11:27:06.564Z,49.62
2019-03-13T11:29:38.501Z,49.66
2019-03-13T11:32:13.191Z,49.69
2019-03-13T11:35:01.222Z,49.72
2019-03-13T11:37:45.601Z,49.76
2019-03-13T11:40:17.466Z,49.79
2019-03-13T11:42:53.754Z,49.82
2019-03-13T11:45:27.230Z,49.85
2019-03-13T11:48:15.174Z,49.88
2019-03-13T11:51:04.234Z,49.91
2019-03-13T11:53:36.080Z,49.94
2019-03-13T11:56:13.623Z,49.99
2019-03-13T11:58:46.989Z,50.02
2019-03-13T12:01:18.833Z,50.05
2019-03-13T12:03:51.576Z,50.07
2019-03-13T12:06:41.946Z,50.11
2019-03-13T12:09:28.200Z,50.14
2019-03-13T12:12:12.423Z,50.18
2019-03-13T12:14:44.898Z,50.23
2019-03-13T12:17:26.407Z,50.25
2019-03-13T12:20:01.631Z,50.29
2019-03-13T12:22:37.985Z,50.33
2019-03-13T12:25:19.719Z,50.37
2019-03-13T12:27:52.005Z,50.39
2019-03-13T12:30:30.018Z,50.42
2019-03-13T12:33:20.022Z,50.45
2019-03-13T12:35:57.720Z,50.47
2019-03-13T12:38:30.282Z,50.51
2019-03-13T12:41:20.322Z,50.55
2019-03-13T12:43:55.293Z,50.57
2019-03-13T12:46:31.750Z,50.64
2019-03-13T12:49:06.557Z,50.66
2019-03-13T12:51:47.098Z,50.70
2019-03-13T12:54:28.077Z,50.73
2019-03-13T12:57:16.323Z,50.77
2019-03-13T12:59:54.334Z,50.81
2019-03-13T13:02:26.668Z,50.85
2019-03-13T13:05:08.069Z,50.88
2019-03-13T13:07:51.894Z,50.91
2019-03-13T13:10:24.272Z,50.94
2019-03-13T13:12:56.159Z,50.98
2019-03-13T13:15:28.002Z,51.00
2019-03-13T13:18:00.221Z,51.03
2019-03-13T13:20:30.524Z,51.07
2019-03-13T13:23:01.933Z,51.12
2019-03-13T13:25:32.552Z,51.17
2019-03-13T13:28:03.253Z,51.24
2019-03-13T13:30:33.621Z,51.30
2019-03-13T13:33:04.198Z,51.37
2019-03-13T13:35:35.170Z,51.42
2019-03-13T13:38:05.873Z,51.44
2019-03-13T13:40:36.506Z,51.46
2019-03-13T13:43:07.326Z,51.48
2019-03-13T13:45:40.075Z,51.49
2019-03-13T13:48:11.429Z,51.49
2019-03-13T13:50:43.262Z,51.48
2019-03-13T13:53:13.803Z,51.46
2019-03-13T13:55:44.477Z,51.42
2019-03-13T13:58:14.803Z,51.40
2019-03-13T14:00:45.148Z,51.38
2019-03-13T14:03:15.357Z,51.34
2019-03-13T14:05:45.630Z,51.30
2019-03-13T14:08:15.849Z,51.26
2019-03-13T14:10:46.414Z,51.24
2019-03-13T14:13:17.081Z,51.25
2019-03-13T14:15:47.331Z,51.24
2019-03-13T14:18:17.904Z,51.19
2019-03-13T14:20:48.203Z,51.15
2019-03-13T14:23:18.415Z,51.08
2019-03-13T14:25:51.372Z,51.01
2019-03-13T14:28:22.749Z,50.96
2019-03-13T14:30:53.834Z,50.94
2019-03-13T14:33:24.118Z,50.90
2019-03-13T14:35:58.579Z,50.88
2019-03-13T14:38:28.362Z,50.82
2019-03-13T14:40:58.598Z,50.77
2019-03-13T14:43:29.872Z,50.73
2019-03-13T14:46:00.213Z,50.70
2019-03-13T14:48:32.418Z,50.72
2019-03-13T14:51:02.870Z,50.67
2019-03-13T14:53:33.311Z,50.66
2019-03-13T14:56:04.955Z,50.64
2019-03-13T14:58:35.866Z,50.62
2019-03-13T15:01:06.156Z,50.61
2019-03-13T15:03:37.476Z,50.58
2019-03-13T15:06:08.099Z,50.58
2019-03-13T15:08:38.874Z,50.55
2019-03-13T15:11:09.158Z,50.52
2019-03-13T15:13:41.380Z,50.51
2019-03-13T15:16:12.380Z,50.45
2019-03-13T15:18:43.124Z,50.39
2019-03-13T15:21:15.695Z,50.34
2019-03-13T15:23:46.379Z,50.27
2019-03-13T15:26:21.883Z,50.24
2019-03-13T15:28:52.457Z,50.16
2019-03-13T15:31:24.388Z,50.11
2019-03-13T15:33:54.960Z,50.10
2019-03-13T15:36:25.228Z,50.05
2019-03-13T15:38:55.450Z,50.02
2019-03-13T15:41:26.095Z,50.00
2019-03-13T15:43:56.500Z,49.97
2019-03-13T15:46:27.088Z,49.94
2019-03-13T15:48:57.713Z,49.90
2019-03-13T15:51:28.054Z,49.90
2019-03-13T15:53:58.261Z,49.88
2019-03-13T15:56:28.560Z,49.91
2019-03-13T15:58:59.108Z,49.92
2019-03-13T16:01:31.615Z,49.92
2019-03-13T16:04:01.948Z,49.90
2019-03-13T16:06:32.508Z,49.87
2019-03-13T16:09:03.140Z,49.83
2019-03-13T16:11:35.060Z,49.79
2019-03-13T16:14:05.608Z,49.77
2019-03-13T16:16:36.919Z,49.75
2019-03-13T16:19:08.140Z,49.72
2019-03-13T16:21:38.363Z,49.72
2019-03-13T16:24:08.620Z,49.71
2019-03-13T16:26:39.181Z,49.72
2019-03-13T16:29:11.465Z,49.72
2019-03-13T16:31:42.233Z,49.70
2019-03-13T16:34:12.491Z,49.71
2019-03-13T16:36:42.876Z,49.70
2019-03-13T16:39:17.416Z,49.70
2019-03-13T16:41:47.783Z,49.71
2019-03-13T16:44:18.037Z,49.71
2019-03-13T16:46:49.695Z,49.73
2019-03-13T16:49:20.467Z,49.74
2019-03-13T16:51:50.748Z,49.74
2019-03-13T16:54:21.323Z,49.75
2019-03-13T16:56:51.602Z,49.78
2019-03-13T16:59:21.841Z,49.80
2019-03-13T17:01:52.052Z,49.85
2019-03-13T17:04:22.287Z,49.84
2019-03-13T17:06:52.496Z,49.87
2019-03-13T17:09:22.713Z,49.91
2019-03-13T17:11:52.941Z,49.92
2019-03-13T17:14:23.494Z,49.96
2019-03-13T17:16:54.128Z,50.00
2019-03-13T17:19:24.478Z,50.04
2019-03-13T17:21:54.717Z,50.08
2019-03-13T17:24:24.947Z,50.10
2019-03-13T17:26:55.238Z,50.14
2019-03-13T17:29:25.547Z,50.17
2019-03-13T17:31:56.122Z,50.21
2019-03-13T17:34:26.703Z,50.21
2019-03-13T17:36:57.333Z,50.24
2019-03-13T17:39:27.661Z,50.27
2019-03-13T17:41:58.297Z,50.30
2019-03-13T17:44:28.597Z,50.32
2019-03-13T17:46:58.831Z,50.34
2019-03-13T17:49:29.164Z,50.36
2019-03-13T17:51:59.471Z,50.38
2019-03-13T17:54:30.028Z,50.40
2019-03-13T17:57:00.308Z,50.42
2019-03-13T17:59:30.829Z,50.42
2019-03-13T18:02:01.039Z,50.47
2019-03-13T18:04:32.934Z,50.49
2019-03-13T18:07:03.216Z,50.52
2019-03-13T18:09:33.836Z,50.55
2019-03-13T18:12:04.241Z,50.59
2019-03-13T18:14:34.467Z,50.60
2019-03-13T18:17:10.935Z,50.63
2019-03-13T18:19:42.798Z,50.65
2019-03-13T18:22:13.861Z,50.68
2019-03-13T18:24:44.296Z,50.69
2019-03-13T18:27:14.857Z,50.71
2019-03-13T18:29:45.127Z,50.75
2019-03-13T18:32:15.926Z,50.75
2019-03-13T18:34:46.567Z,50.77
2019-03-13T18:37:16.946Z,50.81
2019-03-13T18:39:47.501Z,50.81
2019-03-13T18:42:18.182Z,50.83
2019-03-13T18:44:50.090Z,50.84
2019-03-13T18:47:20.319Z,50.82
2019-03-13T18:49:50.558Z,50.83
2019-03-13T18:52:21.195Z,50.81
2019-03-13T18:54:51.900Z,50.83
2019-03-13T18:57:22.691Z,50.82
2019-03-13T18:59:53.480Z,50.81
2019-03-13T19:02:23.794Z,50.84
2019-03-13T19:04:57.646Z,50.84
2019-03-13T19:07:27.514Z,50.88
2019-03-13T19:09:59.817Z,50.92
2019-03-13T19:12:30.445Z,50.94
2019-03-13T19:15:00.757Z,50.98
2019-03-13T19:17:31.717Z,50.99
2019-03-13T19:20:01.994Z,51.02
2019-03-13T19:22:32.579Z,51.07
2019-03-13T19:25:03.033Z,51.08
2019-03-13T19:27:33.252Z,51.12
2019-03-13T19:30:04.859Z,51.13
2019-03-13T19:32:35.072Z,51.18
2019-03-13T19:35:06.745Z,51.20
2019-03-13T19:37:37.305Z,51.22
2019-03-13T19:40:14.694Z,51.26
2019-03-13T19:42:45.341Z,51.30
2019-03-13T19:45:30.411Z,51.33
2019-03-13T19:48:01.741Z,51.34
2019-03-13T19:50:32.285Z,51.37
2019-03-13T19:53:02.523Z,51.40
2019-03-13T19:55:33.300Z,51.45
2019-03-13T19:58:03.614Z,51.49
2019-03-13T20:00:33.916Z,51.48
2019-03-13T20:03:17.453Z,51.54
2019-03-13T20:05:48.094Z,51.58
2019-03-13T20:08:19.482Z,51.60
2019-03-13T20:10:49.750Z,51.63
2019-03-13T20:13:20.054Z,51.68
2019-03-13T20:15:50.475Z,51.73
2019-03-13T20:18:20.946Z,51.75
2019-03-13T20:20:52.977Z,51.78
2019-03-13T20:23:23.259Z,51.81
2019-03-13T20:25:53.561Z,51.84
2019-03-13T20:28:24.252Z,51.86
2019-03-13T20:30:55.850Z,51.91
2019-03-13T20:33:27.042Z,51.92
2019-03-13T20:35:58.123Z,51.95
2019-03-13T20:38:28.333Z,51.98
2019-03-13T20:40:58.738Z,52.01
2019-03-13T20:43:29.024Z,52.02
2019-03-13T20:45:59.597Z,52.08
2019-03-13T20:48:30.318Z,52.08
2019-03-13T20:51:00.612Z,52.11
2019-03-13T20:53:30.842Z,52.16
2019-03-13T20:56:01.408Z,52.19
2019-03-13T20:58:32.140Z,52.20
2019-03-13T21:01:04.399Z,52.23
2019-03-13T21:03:35.507Z,52.26
2019-03-13T21:06:05.900Z,52.29
2019-03-13T21:08:38.083Z,52.32
2019-03-13T21:11:09.061Z,52.34
2019-03-13T21:13:39.407Z,52.37
2019-03-13T21:16:09.916Z,52.41
2019-03-13T21:18:41.897Z,52.43
2019-03-13T21:21:12.148Z,52.48
2019-03-13T21:23:42.875Z,52.52
2019-03-13T21:26:13.541Z,52.54
2019-03-13T21:28:43.887Z,52.57
2019-03-13T21:31:13.938Z,52.60
2019-03-13T21:33:44.235Z,52.64
2019-03-13T21:36:14.799Z,52.66
2019-03-13T21:38:45.453Z,52.69
2019-03-13T21:41:16.109Z,52.73
2019-03-13T21:43:46.402Z,52.76
2019-03-13T21:46:16.994Z,52.81
2019-03-13T21:48:47.267Z,52.83
2019-03-13T21:51:17.530Z,52.88
2019-03-13T21:53:47.812Z,52.92
2019-03-13T21:56:18.095Z,52.92
2019-03-13T21:58:48.336Z,52.97
2019-03-13T22:01:20.026Z,53.02
2019-03-13T22:03:50.900Z,53.05
2019-03-13T22:06:28.691Z,53.07
2019-03-13T22:08:54.366Z,53.11
2019-03-13T22:11:24.604Z,53.16
2019-03-13T22:13:55.166Z,53.22
2019-03-13T22:16:25.543Z,53.25
2019-03-13T22:18:56.108Z,53.27
2019-03-13T22:21:26.464Z,53.32
2019-03-13T22:23:56.627Z,53.36
2019-03-13T22:26:27.238Z,53.38
2019-03-13T22:28:57.533Z,53.40
2019-03-13T22:31:27.757Z,53.42
2019-03-13T22:33:57.967Z,53.45
2019-03-13T22:36:28.174Z,53.48
2019-03-13T22:38:58.407Z,53.51
2019-03-13T22:41:28.619Z,53.53
2019-03-13T22:43:59.234Z,53.58
2019-03-13T22:46:29.531Z,53.60
2019-03-13T22:48:59.743Z,53.65
2019-03-13T22:51:30.196Z,53.67
2019-03-13T22:54:00.745Z,53.68
2019-03-13T22:56:31.057Z,53.72
2019-03-13T22:59:01.614Z,53.76
2019-03-13T23:01:32.413Z,53.80
2019-03-13T23:04:03.225Z,53.82
2019-03-13T23:06:33.530Z,53.85
2019-03-13T23:09:05.051Z,53.87
2019-03-13T23:11:36.407Z,53.90
2019-03-13T23:14:07.033Z,53.93
2019-03-13T23:16:37.764Z,53.95
2019-03-13T23:19:08.379Z,53.96
2019-03-13T23:21:38.689Z,54.01
2019-03-13T23:24:08.970Z,54.03
2019-03-13T23:26:39.204Z,54.06
2019-03-13T23:29:09.833Z,54.07
2019-03-13T23:31:40.145Z,54.11
2019-03-13T23:34:10.715Z,54.16
2019-03-13T23:36:41.380Z,54.17
2019-03-13T23:39:12.501Z,54.19
2019-03-13T23:41:43.164Z,54.22
2019-03-13T23:44:15.120Z,54.25
2019-03-13T23:46:45.394Z,54.29
2019-03-13T23:49:15.958Z,54.31
2019-03-13T23:51:46.232Z,54.33
2019-03-13T23:54:16.467Z,54.37
2019-03-13T23:56:46.846Z,54.39
2019-03-13T23:59:17.111Z,54.42
